首页
METAR-TAF:

METAR-TAF

机场 :

Chetwynd, 不列颠哥伦比亚, 加拿大

纬度: 55-42N, 经度: 121-38W, 海拔: 609米

当前天气观测

该预报发布于14分钟前的23:00 UTC
风速12节,风向西南,有时为18节阵风,在南转西南西之间变化
温度 5°C
湿度 20%
气压 1017 hPa
能見度: 56.3公里
少量云层高于4000英尺
少量云层高于5500英尺
散云层高于9000英尺
散云层高于20000英尺

METAR: CYCQ 072300Z 23012G18KT 210V270 35SM FEW040 FEW055 SCT090 SCT200 05/M16 A3002 RMK SC1CU1AC2CI1 CI TR VIRGA S SLP196

时间: 16:14 (23:14 UTC)


TAF: 丢失

超过4000个机场的气象观测和天气预报(METAR&TAF报告)。

可查询的气象台以黄色和红色小点在地图上表示。

将鼠标移到小点上方,可查看气象台名称。

然后点击查看天气观测和预报。

如需切换地图:点击带黑十字的绿色按钮放大地图;点击带横线的绿色按钮缩小地图;或者点击绿色箭头查看邻近地区的地图。


METAR-TAF: